Time;durP1;ratioP1;P1;durP2;ratioP2;P2;SDS_P1;SDS_P2;PMS_P1;PMS_P2;Temp;Humidity;BMP_temperature;BMP_pressure;BME280_temperature;BME280_humidity;BME280_pressure;Samples;Min_cycle;Max_cycle;Signal;HPM_P1;HPM_P2
2023/07/30 00:01:50;;;;;;;6.60;2.20;;;;;;;17.82;100.00;99531.89;177193;1266;58235;-88
2023/07/30 00:05:55;;;;;;;7.10;1.80;;;;;;;17.82;100.00;99540.02;176791;1265;46459;-88
2023/07/30 00:09:59;;;;;;;7.40;1.50;;;;;;;17.80;100.00;99539.48;177163;1264;46177;-88
2023/07/30 00:14:02;;;;;;;9.20;3.00;;;;;;;17.79;100.00;99542.61;177292;1265;46075;-88
2023/07/30 00:18:06;;;;;;;9.50;1.60;;;;;;;17.71;100.00;99548.22;176973;1264;46142;-88
2023/07/30 00:22:09;;;;;;;9.40;2.00;;;;;;;17.63;100.00;99549.98;176680;1266;62606;-88
2023/07/30 00:26:13;;;;;;;8.30;2.10;;;;;;;17.54;100.00;99558.50;176568;1270;46212;-88
2023/07/30 00:30:16;;;;;;;4.60;2.80;;;;;;;17.48;100.00;99564.33;176741;1268;46084;-89
2023/07/30 00:34:19;;;;;;;7.60;2.00;;;;;;;17.47;100.00;99561.95;177013;1265;44732;-88
2023/07/30 00:38:23;;;;;;;3.40;1.50;;;;;;;17.50;100.00;99568.10;176872;1266;46082;-88
2023/07/30 00:42:26;;;;;;;4.50;1.70;;;;;;;17.55;100.00;99567.59;176682;1265;58295;-88
2023/07/30 00:46:30;;;;;;;15.30;2.90;;;;;;;17.60;100.00;99569.17;176565;1267;46125;-88
2023/07/30 00:50:34;;;;;;;5.60;2.00;;;;;;;17.59;100.00;99569.66;176825;1264;46175;-87
2023/07/30 00:54:39;;;;;;;4.70;2.60;;;;;;;17.61;100.00;99571.23;176595;1264;46087;-88
2023/07/30 00:58:47;;;;;;;10.70;2.50;;;;;;;17.58;100.00;99571.11;176561;1265;45317;-88
2023/07/30 01:02:53;;;;;;;17.00;3.00;;;;;;;17.58;100.00;99569.53;176454;1266;59698;-88
2023/07/30 01:06:58;;;;;;;9.20;3.20;;;;;;;17.65;100.00;99574.21;176398;1270;46117;-88
2023/07/30 01:11:04;;;;;;;6.80;2.20;;;;;;;17.74;100.00;99572.77;176764;1268;46110;-88
2023/07/30 01:15:09;;;;;;;14.50;3.50;;;;;;;17.77;100.00;99575.86;176424;1265;46232;-88
2023/07/30 01:19:13;;;;;;;10.00;2.80;;;;;;;17.68;100.00;99581.77;176516;1265;46030;-88
2023/07/30 01:23:16;;;;;;;11.10;2.90;;;;;;;17.60;100.00;99579.40;176498;1271;58096;-87
2023/07/30 01:27:27;;;;;;;7.50;2.80;;;;;;;17.59;100.00;99577.36;176727;1267;46225;-88
2023/07/30 01:31:34;;;;;;;13.20;3.20;;;;;;;17.61;100.00;99580.63;176720;1265;46188;-88
2023/07/30 01:35:41;;;;;;;13.80;2.60;;;;;;;17.63;100.00;99583.66;176739;1268;46133;-88
2023/07/30 01:39:48;;;;;;;8.40;2.60;;;;;;;17.61;100.00;99586.79;176892;1267;46069;-87
2023/07/30 01:43:51;;;;;;;21.10;3.80;;;;;;;17.62;100.00;99581.49;176886;1266;60642;-88
2023/07/30 01:47:55;;;;;;;16.00;3.10;;;;;;;17.62;100.00;99582.33;176597;1269;46021;-88
2023/07/30 01:51:59;;;;;;;16.40;4.10;;;;;;;17.62;100.00;99584.86;176522;1264;46191;-87
2023/07/30 01:56:03;;;;;;;12.90;3.00;;;;;;;17.65;100.00;99585.02;176404;1268;45971;-88
2023/07/30 02:00:07;;;;;;;11.20;2.70;;;;;;;17.68;100.00;99581.04;176965;1265;46106;-88
2023/07/30 02:04:10;;;;;;;23.30;4.60;;;;;;;17.71;100.00;99582.07;176530;1268;57485;-88
2023/07/30 02:08:15;;;;;;;10.90;4.90;;;;;;;17.77;100.00;99583.73;176397;1265;46128;-88
2023/07/30 02:12:19;;;;;;;16.30;4.10;;;;;;;17.79;100.00;99583.63;176502;1265;46104;-87
2023/07/30 02:16:23;;;;;;;13.20;3.90;;;;;;;17.77;100.00;99584.02;176917;1265;46428;-88
2023/07/30 02:20:27;;;;;;;14.70;3.60;;;;;;;17.75;100.00;99582.21;176583;1266;46103;-88
2023/07/30 02:24:30;;;;;;;26.80;4.20;;;;;;;17.74;100.00;99586.07;176620;1265;57977;-89
2023/07/30 02:28:33;;;;;;;12.70;3.10;;;;;;;17.74;100.00;99586.77;176557;1268;46008;-88
2023/07/30 02:32:36;;;;;;;19.30;4.00;;;;;;;17.72;100.00;99594.77;176920;1270;46110;-89
2023/07/30 02:36:40;;;;;;;12.00;3.30;;;;;;;17.64;100.00;99608.98;176664;1265;46056;-88
2023/07/30 02:40:43;;;;;;;17.10;3.80;;;;;;;17.63;100.00;99608.73;176737;1266;47679;-89
2023/07/30 02:44:46;;;;;;;14.80;4.50;;;;;;;17.56;100.00;99612.98;176420;1264;59207;-89
2023/07/30 02:48:49;;;;;;;11.90;4.20;;;;;;;17.49;100.00;99620.98;176678;1268;46098;-88
2023/07/30 02:52:53;;;;;;;14.80;4.30;;;;;;;17.52;100.00;99619.86;176515;1268;46115;-89
2023/07/30 02:56:56;;;;;;;22.50;4.60;;;;;;;17.54;100.00;99626.30;176580;1265;46444;-89
2023/07/30 03:01:07;;;;;;;14.80;4.00;;;;;;;17.54;100.00;99622.46;176680;1265;45993;-88
2023/07/30 03:05:10;;;;;;;14.80;3.60;;;;;;;17.56;100.00;99623.01;176795;1265;59568;-88
2023/07/30 03:09:14;;;;;;;11.90;3.70;;;;;;;17.59;100.00;99625.55;176837;1264;46126;-87
2023/07/30 03:13:18;;;;;;;23.70;4.50;;;;;;;17.61;100.00;99623.52;176672;1267;46063;-88
2023/07/30 03:17:21;;;;;;;13.40;4.00;;;;;;;17.63;100.00;99621.30;176681;1267;46116;-88
2023/07/30 03:21:25;;;;;;;14.30;3.60;;;;;;;17.66;100.00;99620.14;176810;1265;46091;-87
2023/07/30 03:25:28;;;;;;;16.90;4.60;;;;;;;17.68;100.00;99620.36;177219;1265;58258;-87
2023/07/30 03:29:32;;;;;;;19.90;4.40;;;;;;;17.69;100.00;99619.61;177295;1265;45986;-88
2023/07/30 03:33:39;;;;;;;35.50;5.20;;;;;;;17.70;100.00;99611.67;177144;1265;45956;-87
2023/07/30 03:37:42;;;;;;;30.20;5.80;;;;;;;17.71;100.00;99611.85;176859;1266;46114;-86
2023/07/30 03:41:45;;;;;;;26.40;4.30;;;;;;;17.73;100.00;99608.36;177025;1265;46105;-87
2023/07/30 03:45:48;;;;;;;25.20;4.60;;;;;;;17.76;100.00;99605.94;176839;1265;58275;-87
2023/07/30 03:49:52;;;;;;;18.20;4.20;;;;;;;17.80;100.00;99605.70;176728;1267;46167;-88
2023/07/30 03:53:55;;;;;;;15.90;3.40;;;;;;;17.83;100.00;99604.41;176662;1264;46062;-88
2023/07/30 03:57:58;;;;;;;21.50;4.90;;;;;;;17.81;100.00;99610.06;176445;1268;46223;-89
2023/07/30 04:02:02;;;;;;;17.30;3.90;;;;;;;17.80;100.00;99611.00;176896;1269;46121;-89
2023/07/30 04:06:05;;;;;;;37.30;5.80;;;;;;;17.82;100.00;99611.19;176653;1266;59580;-89
2023/07/30 04:10:08;;;;;;;16.80;4.00;;;;;;;17.89;100.00;99614.65;176562;1265;46101;-89
2023/07/30 04:14:11;;;;;;;27.50;4.50;;;;;;;18.00;100.00;99614.48;176331;1266;46124;-88
2023/07/30 04:18:15;;;;;;;19.40;4.50;;;;;;;18.23;100.00;99606.70;176444;1270;46049;-89
2023/07/30 04:22:18;;;;;;;26.50;6.60;;;;;;;18.76;100.00;99604.77;176957;1264;46105;-88
2023/07/30 04:26:21;;;;;;;8.00;3.90;;;;;;;19.71;100.00;99609.39;177195;1265;59412;-89
2023/07/30 04:30:24;;;;;;;17.10;4.30;;;;;;;20.81;100.00;99611.70;177436;1267;46014;-83
2023/07/30 04:34:28;;;;;;;10.60;4.40;;;;;;;22.03;100.00;99616.48;177993;1267;44928;-83
2023/07/30 04:38:31;;;;;;;12.00;3.50;;;;;;;23.28;100.00;99613.02;177810;1267;46565;-83
2023/07/30 04:42:34;;;;;;;10.80;2.80;;;;;;;24.13;100.00;99617.15;178236;1269;46225;-83
2023/07/30 04:46:37;;;;;;;15.50;4.20;;;;;;;24.51;97.22;99613.27;178046;1268;58275;-83
2023/07/30 04:50:41;;;;;;;14.50;4.50;;;;;;;25.01;95.04;99614.83;178285;1267;46024;-83
2023/07/30 04:54:45;;;;;;;7.80;2.80;;;;;;;25.72;94.03;99617.35;178927;1266;46087;-82
2023/07/30 04:58:48;;;;;;;15.80;2.60;;;;;;;26.18;83.70;99611.05;179437;1269;46034;-81
2023/07/30 05:02:53;;;;;;;11.50;3.80;;;;;;;26.40;78.20;99613.51;179099;1267;44765;-82
2023/07/30 05:06:57;;;;;;;9.10;2.60;;;;;;;26.31;76.92;99620.16;178866;1266;60226;-82
2023/07/30 05:11:01;;;;;;;9.70;2.90;;;;;;;26.09;76.69;99615.14;179045;1267;44302;-82
2023/07/30 05:15:06;;;;;;;4.60;2.30;;;;;;;25.62;77.65;99608.77;179019;1268;45970;-82
2023/07/30 05:19:10;;;;;;;4.10;2.30;;;;;;;25.84;80.07;99615.33;179005;1267;43711;-82
2023/07/30 05:23:15;;;;;;;5.30;2.00;;;;;;;26.22;79.28;99615.43;179081;1267;46004;-82
2023/07/30 05:27:18;;;;;;;7.20;1.70;;;;;;;26.59;78.18;99620.48;179030;1267;58187;-82
2023/07/30 05:31:22;;;;;;;3.90;1.90;;;;;;;26.80;75.38;99613.70;179049;1267;46021;-82
2023/07/30 05:35:26;;;;;;;2.70;2.30;;;;;;;27.16;75.35;99611.00;179054;1266;44636;-82
2023/07/30 05:39:32;;;;;;;8.20;1.30;;;;;;;27.46;74.19;99606.95;179119;1267;46098;-81
2023/07/30 05:43:36;;;;;;;5.10;1.60;;;;;;;27.50;74.59;99610.39;179075;1270;44181;-82
2023/07/30 05:47:40;;;;;;;3.30;1.40;;;;;;;27.74;74.27;99614.94;179220;1267;59595;-82
2023/07/30 05:51:44;;;;;;;3.40;2.00;;;;;;;27.97;72.85;99621.30;178930;1267;45992;-82
2023/07/30 05:55:48;;;;;;;1.60;1.10;;;;;;;28.01;72.10;99622.38;179268;1267;46018;-82
2023/07/30 05:59:52;;;;;;;3.30;1.60;;;;;;;27.90;70.91;99623.85;179306;1266;45365;-82
2023/07/30 06:03:56;;;;;;;4.20;2.10;;;;;;;27.88;73.05;99624.91;179342;1266;46128;-81
2023/07/30 06:08:02;;;;;;;4.40;1.10;;;;;;;27.89;73.12;99627.38;179425;1267;58201;-81
2023/07/30 06:12:09;;;;;;;4.90;1.30;;;;;;;27.94;72.21;99630.71;179209;1267;45958;-82
2023/07/30 06:16:15;;;;;;;5.80;1.70;;;;;;;27.93;72.05;99630.23;179400;1268;44549;-82
2023/07/30 06:20:19;;;;;;;4.00;1.70;;;;;;;27.97;71.88;99631.57;179067;1267;44624;-82
2023/07/30 06:24:23;;;;;;;3.10;1.40;;;;;;;27.97;71.83;99631.13;179459;1268;44792;-81
2023/07/30 06:28:40;;;;;;;3.80;1.60;;;;;;;28.05;72.00;99626.45;179427;1266;60129;-81
2023/07/30 06:32:44;;;;;;;1.40;1.20;;;;;;;27.71;69.79;99627.67;179553;1268;46050;-81
2023/07/30 06:36:48;;;;;;;4.10;1.90;;;;;;;27.40;71.21;99631.71;179302;1268;44568;-81
2023/07/30 06:40:53;;;;;;;3.70;1.70;;;;;;;27.13;72.72;99644.09;179406;1267;45967;-81
2023/07/30 06:44:58;;;;;;;3.30;1.80;;;;;;;27.14;73.66;99644.98;179109;1268;43643;-81
2023/07/30 06:49:02;;;;;;;1.80;1.50;;;;;;;26.99;71.75;99644.98;179362;1266;58307;-82
2023/07/30 06:53:06;;;;;;;1.10;1.00;;;;;;;26.42;73.67;99645.77;179146;1268;45899;-81
2023/07/30 06:57:11;;;;;;;4.60;1.60;;;;;;;26.45;75.11;99647.73;179438;1267;46108;-81
2023/07/30 07:01:15;;;;;;;2.50;1.70;;;;;;;26.25;73.90;99645.08;179200;1268;44685;-81
2023/07/30 07:05:19;;;;;;;8.80;1.90;;;;;;;26.07;75.48;99650.96;179146;1267;44519;-81
2023/07/30 07:09:23;;;;;;;1.60;0.90;;;;;;;26.00;75.25;99652.95;179187;1267;58613;-81
2023/07/30 07:13:27;;;;;;;2.40;1.40;;;;;;;26.06;74.75;99653.34;179062;1267;44804;-81
2023/07/30 07:17:32;;;;;;;1.70;1.00;;;;;;;26.41;75.84;99653.33;178960;1270;43800;-81
2023/07/30 07:21:36;;;;;;;2.20;1.40;;;;;;;26.57;73.70;99651.58;179007;1267;46178;-81
2023/07/30 07:25:40;;;;;;;2.10;1.70;;;;;;;26.54;71.88;99651.53;179143;1270;44734;-82
2023/07/30 07:29:45;;;;;;;1.90;1.40;;;;;;;26.74;72.58;99652.16;179198;1268;60692;-81
2023/07/30 07:33:49;;;;;;;2.60;1.30;;;;;;;26.62;70.29;99645.67;179184;1267;45999;-81
2023/07/30 07:37:53;;;;;;;7.80;0.90;;;;;;;26.80;70.65;99639.02;179227;1272;46098;-81
2023/07/30 07:41:57;;;;;;;1.90;1.30;;;;;;;26.93;70.39;99633.27;179381;1267;44946;-81
2023/07/30 07:46:01;;;;;;;2.20;1.40;;;;;;;27.21;71.81;99634.76;179204;1268;46493;-81
2023/07/30 07:50:06;;;;;;;1.50;0.70;;;;;;;27.49;70.62;99633.30;179323;1267;58121;-81
2023/07/30 07:54:10;;;;;;;2.90;1.30;;;;;;;27.65;69.82;99632.27;178981;1267;46005;-81
2023/07/30 07:58:15;;;;;;;1.30;1.00;;;;;;;27.92;66.77;99629.77;179262;1267;46077;-82
2023/07/30 08:02:20;;;;;;;;;;;;;;;28.03;66.08;99634.02;179154;1267;44143;-82
2023/07/30 08:06:24;;;;;;;4.00;1.60;;;;;;;28.22;66.75;99632.15;179495;1267;43250;-84
2023/07/30 08:10:28;;;;;;;1.30;1.20;;;;;;;28.27;64.78;99630.41;179140;1267;58332;-83
2023/07/30 08:14:33;;;;;;;1.90;1.70;;;;;;;28.57;66.27;99631.68;179410;1267;43787;-83
2023/07/30 08:18:37;;;;;;;1.90;1.50;;;;;;;28.90;65.23;99635.77;179386;1267;45960;-83
2023/07/30 08:22:41;;;;;;;2.10;1.00;;;;;;;28.87;61.60;99635.54;179647;1267;44276;-82
2023/07/30 08:26:46;;;;;;;2.10;1.70;;;;;;;28.73;60.99;99635.20;179597;1267;44601;-81
2023/07/30 08:30:52;;;;;;;2.00;1.30;;;;;;;28.68;62.12;99638.81;179567;1267;58331;-81
2023/07/30 08:34:57;;;;;;;1.90;1.10;;;;;;;28.39;62.23;99637.77;179240;1267;45938;-82
2023/07/30 08:39:03;;;;;;;3.90;2.50;;;;;;;28.13;61.10;99643.21;179142;1268;46053;-83
2023/07/30 08:43:08;;;;;;;3.10;1.30;;;;;;;28.01;63.18;99641.12;179523;1267;43480;-82
2023/07/30 08:47:12;;;;;;;3.90;1.70;;;;;;;27.80;63.06;99636.63;179662;1270;44477;-83
2023/07/30 08:51:18;;;;;;;1.40;1.30;;;;;;;27.46;64.30;99636.77;179901;1267;59987;-83
2023/07/30 08:55:23;;;;;;;2.70;1.60;;;;;;;27.06;65.64;99641.64;179296;1267;45826;-82
2023/07/30 08:59:33;;;;;;;2.10;1.40;;;;;;;27.07;68.24;99645.76;179324;1269;48559;-82
2023/07/30 09:03:40;;;;;;;2.60;2.20;;;;;;;27.15;66.88;99643.31;179337;1267;46017;-83
2023/07/30 09:07:47;;;;;;;3.10;1.40;;;;;;;27.17;67.57;99638.64;179158;1267;46044;-83
2023/07/30 09:11:54;;;;;;;1.20;1.10;;;;;;;27.39;65.87;99633.84;179101;1267;58190;-83
2023/07/30 09:15:58;;;;;;;2.30;1.60;;;;;;;27.58;68.38;99627.20;179245;1269;45275;-83
2023/07/30 09:20:03;;;;;;;4.00;1.30;;;;;;;27.63;66.14;99625.02;179056;1266;46018;-83
2023/07/30 09:24:07;;;;;;;1.90;1.20;;;;;;;27.71;66.22;99622.73;179028;1267;45743;-83
2023/07/30 09:28:11;;;;;;;2.10;1.30;;;;;;;27.80;66.61;99627.63;178864;1267;44445;-83
2023/07/30 09:32:15;;;;;;;2.20;1.30;;;;;;;27.85;65.73;99631.73;178888;1268;60262;-84
2023/07/30 09:36:20;;;;;;;1.20;0.90;;;;;;;27.91;64.84;99628.40;178897;1267;45037;-83
2023/07/30 09:40:38;;;;;;;2.30;1.40;;;;;;;28.02;63.62;99623.31;179254;1267;46124;-84
2023/07/30 09:44:42;;;;;;;1.80;1.40;;;;;;;28.10;64.35;99620.50;179236;1270;46102;-84
2023/07/30 09:48:46;;;;;;;1.60;0.80;;;;;;;28.24;61.90;99619.48;179435;1267;44416;-83
2023/07/30 09:52:50;;;;;;;1.80;1.00;;;;;;;27.85;60.97;99617.17;179014;1267;233429;-83
2023/07/30 09:56:55;;;;;;;2.30;1.10;;;;;;;27.55;61.12;99619.13;179118;1267;46040;-83
2023/07/30 10:01:01;;;;;;;1.90;0.80;;;;;;;27.46;62.80;99615.30;179122;1267;44185;-83
2023/07/30 10:05:14;;;;;;;1.90;1.40;;;;;;;27.74;63.64;99611.61;178932;1267;44867;-83
2023/07/30 10:09:45;;;;;;;2.40;1.20;;;;;;;28.13;62.94;99611.51;179807;1264;43561;-87
2023/07/30 10:14:44;;;;;;;1.30;1.10;;;;;;;28.05;59.46;99611.58;179077;1267;60229;-88
2023/07/30 10:18:56;;;;;;;1.40;1.20;;;;;;;28.09;60.71;99615.68;178445;1266;44248;-86
2023/07/30 10:23:09;;;;;;;2.10;0.80;;;;;;;28.30;60.97;99612.98;178975;1267;44575;-89
2023/07/30 10:27:25;;;;;;;3.10;1.40;;;;;;;28.42;60.38;99611.44;178895;1267;45083;-87
2023/07/30 10:31:40;;;;;;;1.90;1.00;;;;;;;28.52;60.06;99607.54;178419;1266;46002;-87
2023/07/30 10:35:48;;;;;;;1.10;0.60;;;;;;;28.40;59.06;99600.26;178866;1268;58312;-87
2023/07/30 10:39:51;;;;;;;2.60;1.00;;;;;;;28.36;60.08;99600.62;178014;1268;45996;-86
2023/07/30 10:43:55;;;;;;;2.10;1.10;;;;;;;28.07;58.92;99595.58;178528;1266;46053;-88
2023/07/30 10:48:05;;;;;;;1.60;0.80;;;;;;;27.96;60.38;99598.22;178369;1266;44647;-87
2023/07/30 10:52:08;;;;;;;1.00;0.80;;;;;;;28.08;60.32;99593.73;177507;1267;46095;-87
2023/07/30 10:56:13;;;;;;;3.70;1.00;;;;;;;28.15;59.66;99589.33;177747;1266;58512;-88
2023/07/30 11:00:17;;;;;;;1.10;0.80;;;;;;;28.05;61.38;99590.10;177281;1267;46066;-87
2023/07/30 11:04:21;;;;;;;3.70;1.00;;;;;;;27.92;60.90;99588.61;177798;1265;45906;-88
2023/07/30 11:08:39;;;;;;;0.90;0.80;;;;;;;27.83;62.15;99588.53;177734;1266;44105;-87
2023/07/30 11:12:42;;;;;;;0.50;0.40;;;;;;;27.83;60.94;99585.63;178008;1266;46116;-86
2023/07/30 11:16:59;;;;;;;2.10;0.90;;;;;;;27.86;60.14;99587.53;177375;1268;58556;-87
2023/07/30 11:21:13;;;;;;;3.00;1.10;;;;;;;28.03;61.09;99581.82;178176;1267;45941;-87
2023/07/30 11:25:17;;;;;;;2.70;1.30;;;;;;;28.07;61.22;99577.55;178258;1266;46005;-88
2023/07/30 11:29:21;;;;;;;2.70;1.20;;;;;;;28.30;63.16;99581.10;179903;1267;43965;-88
2023/07/30 11:33:26;;;;;;;1.40;1.10;;;;;;;28.47;59.64;99582.11;177560;1267;46116;-88
2023/07/30 11:37:29;;;;;;;2.30;1.30;;;;;;;28.53;60.76;99575.42;177483;1268;58970;-86
2023/07/30 11:41:33;;;;;;;0.50;0.50;;;;;;;28.41;60.37;99567.23;177876;1268;46009;-86
2023/07/30 11:45:36;;;;;;;3.50;0.80;;;;;;;28.31;59.73;99564.55;177838;1267;46117;-86
2023/07/30 11:49:40;;;;;;;1.30;0.80;;;;;;;28.42;59.92;99560.08;178675;1267;44925;-87
2023/07/30 11:53:47;;;;;;;1.20;0.60;;;;;;;28.42;60.00;99555.98;178136;1268;45864;-86
2023/07/30 11:57:51;;;;;;;1.00;0.70;;;;;;;28.36;59.12;99557.31;178056;1270;59233;-88
2023/07/30 12:01:55;;;;;;;1.70;1.50;;;;;;;28.50;59.03;99549.46;178092;1268;46078;-88
2023/07/30 12:06:05;;;;;;;1.10;0.60;;;;;;;28.47;57.22;99545.30;178513;1270;45979;-89
2023/07/30 12:10:13;;;;;;;3.80;1.70;;;;;;;28.53;59.84;99544.90;179293;1266;44608;-88
2023/07/30 12:14:18;;;;;;;1.60;1.30;;;;;;;28.71;61.74;99543.81;178741;1266;45902;-89
2023/07/30 12:23:27;;;;;;;1.00;0.90;;;;;;;29.34;60.45;99528.73;179555;1267;84873;-67
2023/07/30 12:27:30;;;;;;;1.30;0.90;;;;;;;29.54;57.95;99524.30;179088;1269;46027;-67
2023/07/30 12:31:34;;;;;;;2.30;0.80;;;;;;;29.68;57.80;99522.89;179077;1267;46263;-68
2023/07/30 12:35:40;;;;;;;1.70;0.90;;;;;;;29.47;56.98;99511.17;179294;1267;45074;-68
2023/07/30 12:40:02;;;;;;;1.00;0.80;;;;;;;29.27;58.07;99507.00;179346;1267;58304;-66
2023/07/30 12:44:09;;;;;;;1.50;1.40;;;;;;;29.20;58.82;99503.63;179126;1270;46081;-67
2023/07/30 12:48:13;;;;;;;1.60;1.40;;;;;;;29.25;60.86;99502.83;179058;1267;43781;-67
2023/07/30 12:52:17;;;;;;;;;;;;;;;29.22;62.57;99499.64;179197;1267;46091;-67
2023/07/30 12:56:26;;;;;;;1.50;1.30;;;;;;;29.09;62.31;99496.48;178785;1269;45774;-67
2023/07/30 13:00:29;;;;;;;2.70;2.10;;;;;;;29.00;61.29;99490.33;179072;1267;60160;-66
2023/07/30 13:04:32;;;;;;;2.20;1.40;;;;;;;28.84;63.51;99489.60;178978;1266;46118;-67
2023/07/30 13:08:36;;;;;;;3.00;1.50;;;;;;;28.74;65.35;99488.00;179192;1267;45997;-67
2023/07/30 13:13:09;;;;;;;9.30;2.20;;;;;;;28.53;65.05;99489.08;178907;1267;43797;-67
2023/07/30 13:17:12;;;;;;;3.80;2.10;;;;;;;28.23;65.88;99480.55;178989;1267;44418;-66
2023/07/30 13:21:16;;;;;;;3.40;2.30;;;;;;;28.13;66.56;99485.16;179030;1267;58430;-66
2023/07/30 13:25:20;;;;;;;1.90;1.30;;;;;;;27.96;66.64;99493.23;178935;1267;43851;-67
2023/07/30 13:29:23;;;;;;;1.30;1.20;;;;;;;27.88;67.90;99497.96;179053;1267;44529;-66
2023/07/30 13:33:28;;;;;;;1.20;1.10;;;;;;;27.89;67.77;99493.71;179101;1267;46200;-67
2023/07/30 13:37:31;;;;;;;2.30;1.90;;;;;;;28.00;67.78;99485.27;179167;1267;47351;-66
2023/07/30 13:41:34;;;;;;;2.70;0.90;;;;;;;28.03;67.69;99485.41;179216;1267;58248;-64
2023/07/30 13:45:42;;;;;;;1.40;1.00;;;;;;;27.93;66.43;99481.89;179159;1266;46196;-67
2023/07/30 13:50:10;;;;;;;4.30;1.10;;;;;;;27.27;65.41;99507.29;177870;1274;45387;-67
2023/07/30 13:54:42;;;;;;;1.80;1.20;;;;;;;26.48;68.27;99516.84;177996;1273;44731;-65
2023/07/30 13:58:45;;;;;;;7.80;1.70;;;;;;;25.68;74.29;99520.36;177871;1273;46008;-66
2023/07/30 14:02:49;;;;;;;9.80;1.20;;;;;;;24.97;77.51;99515.55;177806;1273;60030;-66
2023/07/30 14:07:20;;;;;;;3.70;1.60;;;;;;;24.33;81.58;99526.80;177683;1274;44071;-65
2023/07/30 14:11:27;;;;;;;1.60;0.90;;;;;;;23.95;85.94;99536.73;177946;1273;43949;-66
2023/07/30 14:15:32;;;;;;;2.60;1.70;;;;;;;23.74;88.02;99544.33;177617;1273;44656;-67
2023/07/30 14:19:36;;;;;;;10.00;1.80;;;;;;;23.61;91.25;99555.17;178005;1270;45951;-67
2023/07/30 14:23:40;;;;;;;5.70;1.40;;;;;;;23.55;92.39;99549.70;178928;1263;89105;-81
2023/07/30 14:27:44;;;;;;;2.70;1.60;;;;;;;23.39;92.38;99555.45;179208;1265;44235;-82
2023/07/30 14:31:47;;;;;;;1.80;1.00;;;;;;;23.26;92.87;99565.83;178851;1266;44698;-82
2023/07/30 14:35:50;;;;;;;7.60;1.90;;;;;;;23.15;94.46;99581.54;179245;1267;46136;-81
2023/07/30 14:39:53;;;;;;;5.70;1.90;;;;;;;23.05;97.42;99588.09;179150;1265;46123;-83
2023/07/30 14:43:57;;;;;;;3.70;1.70;;;;;;;22.87;99.72;99580.52;179278;1267;58803;-82
2023/07/30 14:48:00;;;;;;;2.80;0.90;;;;;;;22.76;100.00;99562.09;179718;1266;44041;-83
2023/07/30 14:52:04;;;;;;;4.00;1.20;;;;;;;22.84;100.00;99556.42;178897;1267;46008;-82
2023/07/30 14:56:09;;;;;;;2.70;1.50;;;;;;;22.97;100.00;99574.61;179410;1265;46066;-83
2023/07/30 15:00:16;;;;;;;3.30;1.40;;;;;;;23.05;100.00;99591.84;179985;1266;43835;-83
2023/07/30 15:04:19;;;;;;;1.60;1.20;;;;;;;23.23;100.00;99614.41;179511;1266;57923;-83
2023/07/30 15:08:23;;;;;;;1.50;1.40;;;;;;;23.36;100.00;99618.47;179456;1267;44502;-82
2023/07/30 15:12:26;;;;;;;0.90;0.90;;;;;;;23.20;100.00;99612.88;179343;1266;46049;-82
2023/07/30 15:16:33;;;;;;;3.60;2.10;;;;;;;23.04;100.00;99601.73;179210;1267;46018;-82
2023/07/30 15:20:38;;;;;;;2.00;1.50;;;;;;;23.04;100.00;99597.23;179618;1267;46897;-83
2023/07/30 15:24:41;;;;;;;2.50;1.10;;;;;;;22.95;100.00;99595.23;179114;1267;59161;-83
2023/07/30 15:28:44;;;;;;;1.60;1.50;;;;;;;22.88;100.00;99599.64;179228;1265;44629;-81
2023/07/30 15:32:49;;;;;;;3.80;1.60;;;;;;;22.85;100.00;99582.99;179150;1266;45921;-83
2023/07/30 15:36:52;;;;;;;2.40;1.40;;;;;;;22.89;100.00;99577.81;179351;1266;46085;-83
2023/07/30 15:40:55;;;;;;;3.60;1.50;;;;;;;22.95;99.90;99572.54;179015;1267;45897;-83
2023/07/30 15:44:59;;;;;;;3.40;1.90;;;;;;;23.08;99.93;99568.15;179272;1268;57930;-82
2023/07/30 15:49:02;;;;;;;2.60;1.00;;;;;;;23.23;99.66;99567.95;179350;1266;44857;-83
2023/07/30 15:53:05;;;;;;;2.20;1.10;;;;;;;23.51;98.95;99555.17;178974;1266;45931;-83
2023/07/30 15:57:11;;;;;;;2.50;0.80;;;;;;;23.58;94.26;99547.48;178996;1269;45932;-83
2023/07/30 16:01:15;;;;;;;2.40;0.80;;;;;;;23.69;93.99;99547.29;179614;1267;43848;-83
2023/07/30 16:05:18;;;;;;;0.90;0.70;;;;;;;23.76;91.50;99539.77;179036;1266;59569;-83
2023/07/30 16:09:21;;;;;;;2.20;0.70;;;;;;;23.80;91.42;99540.27;179038;1268;44065;-81
2023/07/30 16:13:24;;;;;;;3.20;1.20;;;;;;;23.84;91.81;99544.05;179215;1266;44539;-82
2023/07/30 16:17:28;;;;;;;2.00;0.70;;;;;;;23.91;93.18;99539.86;179227;1266;46185;-82
2023/07/30 16:21:33;;;;;;;1.90;1.10;;;;;;;23.95;94.37;99540.57;178995;1268;44752;-81
2023/07/30 16:25:36;;;;;;;4.10;2.00;;;;;;;23.98;93.81;99542.42;179185;1265;58295;-82
2023/07/30 16:29:39;;;;;;;3.40;1.40;;;;;;;23.94;93.39;99547.08;179406;1266;44661;-83
2023/07/30 16:33:42;;;;;;;3.20;1.30;;;;;;;23.93;94.83;99547.27;179105;1267;46043;-81
2023/07/30 16:37:45;;;;;;;2.60;2.30;;;;;;;23.81;96.80;99551.74;179436;1268;46107;-82
2023/07/30 16:41:48;;;;;;;3.40;1.50;;;;;;;23.72;97.50;99554.64;179617;1268;44676;-83
2023/07/30 16:45:51;;;;;;;3.60;1.70;;;;;;;23.71;98.03;99548.55;179972;1266;58251;-82
2023/07/30 16:49:54;;;;;;;4.80;1.30;;;;;;;23.64;99.83;99551.41;179372;1267;46417;-83
2023/07/30 16:53:57;;;;;;;6.20;1.90;;;;;;;23.57;99.62;99561.58;178829;1270;44812;-83
2023/07/30 16:58:01;;;;;;;3.50;2.50;;;;;;;23.49;100.00;99575.14;179440;1267;43873;-82
2023/07/30 17:02:04;;;;;;;4.30;1.30;;;;;;;23.41;100.00;99574.49;179590;1266;45940;-82
2023/07/30 17:06:07;;;;;;;4.10;1.60;;;;;;;23.27;100.00;99565.48;178917;1267;58269;-84
2023/07/30 17:10:10;;;;;;;2.60;1.70;;;;;;;23.13;100.00;99570.09;178862;1267;44459;-83
2023/07/30 17:14:13;;;;;;;5.50;1.40;;;;;;;23.01;100.00;99571.59;179138;1268;45956;-82
2023/07/30 17:18:17;;;;;;;2.60;1.50;;;;;;;22.90;100.00;99571.59;179414;1268;44730;-83
2023/07/30 17:22:20;;;;;;;2.90;1.60;;;;;;;22.85;100.00;99570.52;179008;1267;44780;-82
2023/07/30 17:26:25;;;;;;;4.00;2.90;;;;;;;22.74;100.00;99579.73;179531;1270;58253;-82
2023/07/30 17:30:32;;;;;;;6.50;2.60;;;;;;;22.62;100.00;99589.60;179097;1267;45999;-81
2023/07/30 17:34:35;;;;;;;3.60;2.40;;;;;;;22.58;100.00;99592.88;179057;1266;44523;-83
2023/07/30 17:38:38;;;;;;;3.90;2.10;;;;;;;22.56;100.00;99607.60;178730;1266;44078;-83
2023/07/30 17:42:42;;;;;;;3.70;2.30;;;;;;;22.54;100.00;99607.75;179173;1266;44916;-82
2023/07/30 18:01:19;;;;;;;6.50;3.20;;;;;;;23.00;100.00;99607.44;177030;1283;579325;-63
2023/07/30 18:05:22;;;;;;;6.10;4.00;;;;;;;23.24;100.00;99614.00;179701;1266;273938;-63
2023/07/30 18:09:43;;;;;;;6.60;3.60;;;;;;;23.28;100.00;99622.36;179883;1268;44595;-63
2023/07/30 18:13:56;;;;;;;5.40;4.30;;;;;;;23.30;100.00;99633.61;180517;1259;43728;-62
2023/07/30 18:18:03;;;;;;;3.20;2.90;;;;;;;23.17;100.00;99667.70;180628;1260;43682;-63
2023/07/30 18:22:12;;;;;;;2.00;1.80;;;;;;;23.01;100.00;99684.88;180607;1261;44900;-63
2023/07/30 18:26:16;;;;;;;4.10;3.10;;;;;;;22.86;100.00;99692.13;180595;1257;60100;-64
2023/07/30 18:30:32;;;;;;;3.60;3.30;;;;;;;22.67;100.00;99696.39;180562;1260;45942;-63
2023/07/30 18:34:38;;;;;;;3.20;2.00;;;;;;;22.41;98.15;99729.22;180466;1257;45982;-63
2023/07/30 18:38:44;;;;;;;2.50;1.80;;;;;;;21.87;90.13;99778.40;180447;1257;44143;-65
2023/07/30 18:42:49;;;;;;;13.40;3.90;;;;;;;20.89;100.00;99804.64;180171;1260;44827;-62
2023/07/30 18:46:57;;;;;;;7.10;2.20;;;;;;;20.30;100.00;99812.79;180274;1258;58262;-62
2023/07/30 18:51:52;;;;;;;5.70;2.00;;;;;;;19.59;100.00;99831.75;179903;1262;45927;-62
2023/07/30 18:55:56;;;;;;;2.80;1.20;;;;;;;18.74;100.00;99841.57;179527;1262;45214;-61
2023/07/30 18:59:59;;;;;;;4.10;0.70;;;;;;;18.41;100.00;99842.86;179832;1264;43883;-64
2023/07/30 19:04:03;;;;;;;2.10;0.80;;;;;;;18.06;100.00;99830.25;179901;1264;43775;-61
2023/07/30 19:08:07;;;;;;;1.60;0.90;;;;;;;17.91;100.00;99838.61;180046;1265;58068;-62
2023/07/30 19:12:14;;;;;;;7.00;1.30;;;;;;;17.84;100.00;99834.83;180252;1260;44724;-62
2023/07/30 19:16:18;;;;;;;1.60;0.80;;;;;;;17.76;100.00;99837.36;179914;1260;45203;-62